createdAt,value
2022-12-26T00:01:43.719Z,100.00
2022-12-26T00:04:49.603Z,100.00
2022-12-26T00:06:56.678Z,100.00
2022-12-26T00:09:23.161Z,100.00
2022-12-26T00:11:49.567Z,100.00
2022-12-26T00:14:17.107Z,100.00
2022-12-26T00:16:44.853Z,100.00
2022-12-26T00:19:11.359Z,100.00
2022-12-26T00:21:37.784Z,100.00
2022-12-26T00:24:04.430Z,100.00
2022-12-26T00:26:32.123Z,100.00
2022-12-26T00:28:58.880Z,100.00
2022-12-26T00:31:27.786Z,100.00
2022-12-26T00:33:54.695Z,100.00
2022-12-26T00:36:39.265Z,100.00
2022-12-26T00:39:05.672Z,100.00
2022-12-26T00:41:33.038Z,100.00
2022-12-26T00:43:59.650Z,100.00
2022-12-26T00:46:26.998Z,100.00
2022-12-26T00:48:53.462Z,100.00
2022-12-26T00:51:20.020Z,100.00
2022-12-26T00:53:46.519Z,100.00
2022-12-26T00:56:12.981Z,100.00
2022-12-26T00:58:40.510Z,100.00
2022-12-26T01:01:14.722Z,100.00
2022-12-26T01:03:41.902Z,100.00
2022-12-26T01:06:08.393Z,100.00
2022-12-26T01:08:34.862Z,100.00
2022-12-26T01:11:07.559Z,100.00
2022-12-26T01:13:34.368Z,100.00
2022-12-26T01:16:00.994Z,100.00
2022-12-26T01:18:27.619Z,100.00
2022-12-26T01:21:01.725Z,100.00
2022-12-26T01:23:28.154Z,100.00
2022-12-26T01:26:17.558Z,100.00
2022-12-26T01:28:40.992Z,100.00
2022-12-26T01:31:07.550Z,100.00
2022-12-26T01:33:34.076Z,100.00
2022-12-26T01:36:00.692Z,100.00
2022-12-26T01:38:27.155Z,100.00
2022-12-26T01:41:13.655Z,100.00
2022-12-26T01:43:56.242Z,100.00
2022-12-26T01:46:27.700Z,100.00
2022-12-26T01:48:55.444Z,100.00
2022-12-26T01:51:24.448Z,100.00
2022-12-26T01:53:54.081Z,100.00
2022-12-26T01:56:24.328Z,100.00
2022-12-26T01:58:54.755Z,100.00
2022-12-26T02:01:22.267Z,100.00
2022-12-26T02:04:07.447Z,100.00
2022-12-26T02:06:34.281Z,100.00
2022-12-26T02:09:01.066Z,100.00
2022-12-26T02:11:39.143Z,100.00
2022-12-26T02:14:07.340Z,100.00
2022-12-26T02:16:35.378Z,100.00
2022-12-26T02:19:02.145Z,100.00
2022-12-26T02:21:49.284Z,100.00
2022-12-26T02:24:51.766Z,100.00
2022-12-26T02:28:06.345Z,100.00
2022-12-26T02:30:46.637Z,100.00
2022-12-26T02:33:20.662Z,100.00
2022-12-26T02:36:05.656Z,100.00
2022-12-26T02:38:51.816Z,100.00
2022-12-26T02:41:38.248Z,100.00
2022-12-26T02:44:30.224Z,100.00
2022-12-26T02:47:06.115Z,100.00
2022-12-26T02:50:10.463Z,100.00
2022-12-26T02:53:20.559Z,100.00
2022-12-26T02:56:07.517Z,100.00
2022-12-26T02:59:00.407Z,100.00
2022-12-26T03:02:09.764Z,100.00
2022-12-26T03:04:55.395Z,100.00
2022-12-26T03:07:50.348Z,100.00
2022-12-26T03:10:39.340Z,100.00
2022-12-26T03:13:11.369Z,100.00
2022-12-26T03:16:01.549Z,100.00
2022-12-26T03:18:57.110Z,100.00
2022-12-26T03:21:18.125Z,100.00
2022-12-26T03:23:46.581Z,100.00
2022-12-26T03:26:36.009Z,100.00
2022-12-26T03:29:22.147Z,100.00
2022-12-26T03:31:48.557Z,100.00
2022-12-26T03:34:18.295Z,100.00
2022-12-26T03:37:16.651Z,100.00
2022-12-26T03:40:12.784Z,100.00
2022-12-26T03:43:13.914Z,100.00
2022-12-26T03:46:20.651Z,100.00
2022-12-26T03:49:18.118Z,100.00
2022-12-26T03:52:17.905Z,100.00
2022-12-26T03:55:12.064Z,100.00
2022-12-26T03:58:14.027Z,100.00
2022-12-26T04:01:00.677Z,100.00
2022-12-26T04:03:46.673Z,100.00
2022-12-26T04:06:45.454Z,100.00
2022-12-26T04:09:38.595Z,100.00
2022-12-26T04:12:24.609Z,100.00
2022-12-26T04:15:21.189Z,100.00
2022-12-26T04:18:15.330Z,100.00
2022-12-26T04:20:48.521Z,100.00
2022-12-26T04:23:41.248Z,100.00
2022-12-26T04:26:31.354Z,100.00
2022-12-26T04:29:16.363Z,100.00
2022-12-26T04:32:06.048Z,100.00
2022-12-26T04:35:02.650Z,100.00
2022-12-26T04:37:49.424Z,100.00
2022-12-26T04:40:38.090Z,100.00
2022-12-26T04:43:49.978Z,100.00
2022-12-26T04:46:10.588Z,100.00
2022-12-26T04:49:02.458Z,100.00
2022-12-26T04:51:29.000Z,100.00
2022-12-26T04:53:55.429Z,100.00
2022-12-26T04:56:21.866Z,100.00
2022-12-26T04:58:48.275Z,100.00
2022-12-26T05:01:34.498Z,100.00
2022-12-26T05:04:20.839Z,100.00
2022-12-26T05:07:05.887Z,100.00
2022-12-26T05:09:35.285Z,100.00
2022-12-26T05:12:06.427Z,100.00
2022-12-26T05:14:36.082Z,100.00
2022-12-26T05:17:22.457Z,100.00
2022-12-26T05:20:07.559Z,100.00
2022-12-26T05:22:53.368Z,100.00
2022-12-26T05:25:41.025Z,100.00
2022-12-26T05:28:30.252Z,100.00
2022-12-26T05:30:56.892Z,100.00
2022-12-26T05:33:41.967Z,100.00
2022-12-26T05:36:09.524Z,100.00
2022-12-26T05:38:36.876Z,100.00
2022-12-26T05:41:03.674Z,100.00
2022-12-26T05:43:30.093Z,100.00
2022-12-26T05:45:56.603Z,100.00
2022-12-26T05:48:23.014Z,100.00
2022-12-26T05:50:49.463Z,100.00
2022-12-26T05:53:15.924Z,100.00
2022-12-26T05:55:42.329Z,100.00
2022-12-26T05:58:08.745Z,100.00
2022-12-26T06:00:35.289Z,100.00
2022-12-26T06:03:03.766Z,100.00
2022-12-26T06:05:30.355Z,100.00
2022-12-26T06:07:56.792Z,100.00
2022-12-26T06:10:23.204Z,100.00
2022-12-26T06:12:49.623Z,100.00
2022-12-26T06:15:16.070Z,100.00
2022-12-26T06:17:42.508Z,100.00
2022-12-26T06:20:09.102Z,100.00
2022-12-26T06:22:35.564Z,100.00
2022-12-26T06:25:02.168Z,100.00
2022-12-26T06:27:28.607Z,100.00
2022-12-26T06:29:55.021Z,100.00
2022-12-26T06:32:21.435Z,100.00
2022-12-26T06:34:48.193Z,100.00
2022-12-26T06:37:14.596Z,100.00
2022-12-26T06:39:41.014Z,100.00
2022-12-26T06:42:07.454Z,100.00
2022-12-26T06:44:33.884Z,100.00
2022-12-26T06:47:01.427Z,100.00
2022-12-26T06:49:32.702Z,100.00
2022-12-26T06:51:59.711Z,100.00
2022-12-26T06:54:26.126Z,100.00
2022-12-26T06:56:52.571Z,100.00
2022-12-26T06:59:19.014Z,100.00
2022-12-26T07:01:45.588Z,100.00
2022-12-26T07:04:13.108Z,100.00
2022-12-26T07:06:39.710Z,100.00
2022-12-26T07:09:14.386Z,100.00
2022-12-26T07:11:43.172Z,100.00
2022-12-26T07:14:09.620Z,100.00
2022-12-26T07:16:37.766Z,100.00
2022-12-26T07:19:04.809Z,100.00
2022-12-26T07:21:37.960Z,100.00
2022-12-26T07:24:07.926Z,100.00
2022-12-26T07:26:34.365Z,100.00
2022-12-26T07:29:00.824Z,100.00
2022-12-26T07:31:30.219Z,100.00
2022-12-26T07:33:57.002Z,100.00
2022-12-26T07:36:25.099Z,100.00
2022-12-26T07:38:51.702Z,100.00
2022-12-26T07:41:36.912Z,100.00
2022-12-26T07:44:03.577Z,100.00
2022-12-26T07:46:30.216Z,100.00
2022-12-26T07:48:56.657Z,100.00
2022-12-26T07:51:23.118Z,100.00
2022-12-26T07:53:49.603Z,100.00
2022-12-26T07:56:16.244Z,100.00
2022-12-26T07:58:42.690Z,100.00
2022-12-26T08:01:09.297Z,100.00
2022-12-26T08:03:35.813Z,100.00
2022-12-26T08:06:02.263Z,100.00
2022-12-26T08:08:28.695Z,100.00
2022-12-26T08:11:03.461Z,100.00
2022-12-26T08:13:30.451Z,100.00
2022-12-26T08:15:57.462Z,100.00
2022-12-26T08:18:24.428Z,100.00
2022-12-26T08:20:50.883Z,100.00
2022-12-26T08:23:17.345Z,100.00
2022-12-26T08:25:43.831Z,100.00
2022-12-26T08:28:11.264Z,100.00
2022-12-26T08:30:40.104Z,100.00
2022-12-26T08:33:07.025Z,100.00
2022-12-26T08:35:34.868Z,100.00
2022-12-26T08:38:01.455Z,100.00
2022-12-26T08:40:42.496Z,100.00
2022-12-26T08:43:33.429Z,100.00
2022-12-26T08:46:09.345Z,100.00
2022-12-26T08:48:36.954Z,100.00
2022-12-26T08:51:09.038Z,100.00
2022-12-26T08:53:36.209Z,100.00
2022-12-26T08:56:05.067Z,100.00
2022-12-26T08:58:32.044Z,100.00
2022-12-26T09:01:13.703Z,100.00
2022-12-26T09:03:40.691Z,100.00
2022-12-26T09:06:07.715Z,100.00
2022-12-26T09:08:35.034Z,100.00
2022-12-26T09:11:05.552Z,100.00
2022-12-26T09:13:33.020Z,100.00
2022-12-26T09:16:05.697Z,100.00
2022-12-26T09:18:32.225Z,100.00
2022-12-26T09:21:06.769Z,100.00
2022-12-26T09:23:34.359Z,100.00
2022-12-26T09:26:09.245Z,100.00
2022-12-26T09:28:36.049Z,100.00
2022-12-26T09:31:04.644Z,100.00
2022-12-26T09:33:33.225Z,100.00
2022-12-26T09:36:04.555Z,100.00
2022-12-26T09:38:32.759Z,100.00
2022-12-26T09:41:13.903Z,100.00
2022-12-26T09:44:17.457Z,100.00
2022-12-26T09:46:53.992Z,100.00
2022-12-26T09:49:23.465Z,100.00
2022-12-26T09:51:57.255Z,100.00
2022-12-26T09:54:31.902Z,100.00
2022-12-26T09:57:03.390Z,100.00
2022-12-26T09:59:34.616Z,100.00
2022-12-26T10:02:01.241Z,100.00
2022-12-26T10:04:30.430Z,100.00
2022-12-26T10:07:06.382Z,100.00
2022-12-26T10:09:55.332Z,100.00
2022-12-26T10:12:35.434Z,100.00
2022-12-26T10:15:13.987Z,100.00
2022-12-26T10:17:58.885Z,100.00
2022-12-26T10:20:54.275Z,100.00
2022-12-26T10:23:39.759Z,100.00
2022-12-26T10:26:21.287Z,100.00
2022-12-26T10:28:53.809Z,100.00
2022-12-26T10:31:48.775Z,100.00
2022-12-26T10:34:23.427Z,100.00
2022-12-26T10:36:52.060Z,100.00
2022-12-26T10:39:27.876Z,100.00
2022-12-26T10:42:00.815Z,100.00
2022-12-26T10:44:28.171Z,100.00
2022-12-26T10:47:06.221Z,100.00
2022-12-26T10:49:32.631Z,100.00
2022-12-26T10:52:00.267Z,100.00
2022-12-26T10:54:27.742Z,100.00
2022-12-26T10:56:56.151Z,100.00
2022-12-26T10:59:30.637Z,100.00
2022-12-26T11:02:12.479Z,100.00
2022-12-26T11:05:10.452Z,100.00
2022-12-26T11:07:26.561Z,100.00
2022-12-26T11:09:58.423Z,100.00
2022-12-26T11:12:38.139Z,100.00
2022-12-26T11:15:07.934Z,100.00
2022-12-26T11:17:44.431Z,100.00
2022-12-26T11:20:16.768Z,100.00
2022-12-26T11:22:44.240Z,100.00
2022-12-26T11:25:10.788Z,100.00
2022-12-26T11:27:40.902Z,100.00
2022-12-26T11:30:13.838Z,100.00
2022-12-26T11:32:44.812Z,100.00
2022-12-26T11:35:23.221Z,100.00
2022-12-26T11:37:55.750Z,100.00
2022-12-26T11:40:24.986Z,100.00
2022-12-26T11:42:57.492Z,100.00
2022-12-26T11:45:26.765Z,100.00
2022-12-26T11:47:54.940Z,100.00
2022-12-26T11:50:23.251Z,100.00
2022-12-26T11:53:05.612Z,100.00
2022-12-26T11:55:35.475Z,100.00
2022-12-26T11:58:07.900Z,100.00
2022-12-26T12:00:38.690Z,100.00
2022-12-26T12:03:11.461Z,100.00
2022-12-26T12:05:55.182Z,100.00
2022-12-26T12:08:30.483Z,100.00
2022-12-26T12:11:04.510Z,100.00
2022-12-26T12:13:41.029Z,100.00
2022-12-26T12:16:46.139Z,100.00
2022-12-26T12:19:28.616Z,98.92
2022-12-26T12:22:06.964Z,98.34
2022-12-26T12:24:42.646Z,97.39
2022-12-26T12:27:21.855Z,96.77
2022-12-26T12:30:18.270Z,96.08
2022-12-26T12:32:57.383Z,95.57
2022-12-26T12:35:54.215Z,94.49
2022-12-26T12:38:39.182Z,93.71
2022-12-26T12:41:31.803Z,93.14
2022-12-26T12:44:14.467Z,92.74
2022-12-26T12:46:59.068Z,92.06
2022-12-26T12:49:34.476Z,92.55
2022-12-26T12:52:09.369Z,92.67
2022-12-26T12:54:54.147Z,92.21
2022-12-26T12:57:36.262Z,92.58
2022-12-26T13:00:21.596Z,92.58
2022-12-26T13:02:52.213Z,92.55
2022-12-26T13:05:21.837Z,92.67
2022-12-26T13:07:54.374Z,92.83
2022-12-26T13:10:34.515Z,92.25
2022-12-26T13:13:13.698Z,92.51
2022-12-26T13:15:46.315Z,92.59
2022-12-26T13:18:19.353Z,92.76
2022-12-26T13:20:53.745Z,92.83
2022-12-26T13:24:05.321Z,92.55
2022-12-26T13:26:39.101Z,92.26
2022-12-26T13:29:17.147Z,91.96
2022-12-26T13:31:44.578Z,90.67
2022-12-26T13:34:16.403Z,89.75
2022-12-26T13:36:49.521Z,89.33
2022-12-26T13:39:36.479Z,88.88
2022-12-26T13:42:57.001Z,88.00
2022-12-26T13:45:35.194Z,87.44
2022-12-26T13:48:22.771Z,87.14
2022-12-26T13:50:56.159Z,87.16
2022-12-26T13:53:26.018Z,86.77
2022-12-26T13:56:04.091Z,86.35
2022-12-26T13:59:07.634Z,86.31
2022-12-26T14:01:46.188Z,86.07
2022-12-26T14:04:34.210Z,85.83
2022-12-26T14:07:22.404Z,85.85
2022-12-26T14:09:53.186Z,85.17
2022-12-26T14:12:50.710Z,85.02
2022-12-26T14:15:28.387Z,84.11
2022-12-26T14:18:08.456Z,83.13
2022-12-26T14:21:00.245Z,83.09
2022-12-26T14:23:36.479Z,82.46
2022-12-26T14:26:32.832Z,82.38
2022-12-26T14:29:29.437Z,82.06
2022-12-26T14:32:43.236Z,82.26
2022-12-26T14:35:27.947Z,82.74
2022-12-26T14:38:22.774Z,82.90
2022-12-26T14:41:06.074Z,83.78
2022-12-26T14:43:38.288Z,83.54
2022-12-26T14:46:32.782Z,84.07
2022-12-26T14:49:00.955Z,83.59
2022-12-26T14:51:30.670Z,83.40
2022-12-26T14:54:16.814Z,83.12
2022-12-26T14:56:43.364Z,83.18
2022-12-26T14:59:29.789Z,83.23
2022-12-26T15:02:28.476Z,83.45
2022-12-26T15:05:11.470Z,83.72
2022-12-26T15:08:07.597Z,83.94
2022-12-26T15:10:55.665Z,83.83
2022-12-26T15:13:55.451Z,83.79
2022-12-26T15:16:27.758Z,84.03
2022-12-26T15:19:15.548Z,83.66
2022-12-26T15:21:51.042Z,83.93
2022-12-26T15:25:16.406Z,83.48
2022-12-26T15:28:00.345Z,83.53
2022-12-26T15:30:50.911Z,83.59
2022-12-26T15:33:29.392Z,83.42
2022-12-26T15:36:22.620Z,83.80
2022-12-26T15:38:59.079Z,84.02
2022-12-26T15:41:35.994Z,84.43
2022-12-26T15:44:18.731Z,84.92
2022-12-26T15:47:08.584Z,85.08
2022-12-26T15:49:53.698Z,85.31
2022-12-26T15:52:44.255Z,86.49
2022-12-26T15:55:29.625Z,87.21
2022-12-26T15:57:59.364Z,88.16
2022-12-26T16:00:27.094Z,88.80
2022-12-26T16:03:09.020Z,89.70
2022-12-26T16:05:44.059Z,89.88
2022-12-26T16:08:14.344Z,90.91
2022-12-26T16:10:41.141Z,92.15
2022-12-26T16:13:13.517Z,93.17
2022-12-26T16:15:51.233Z,93.66
2022-12-26T16:18:21.029Z,93.71
2022-12-26T16:21:14.699Z,93.82
2022-12-26T16:23:42.255Z,93.93
2022-12-26T16:26:17.095Z,94.58
2022-12-26T16:28:43.863Z,94.98
2022-12-26T16:31:17.989Z,94.90
2022-12-26T16:33:44.407Z,95.46
2022-12-26T16:36:21.358Z,95.35
2022-12-26T16:38:48.151Z,95.24
2022-12-26T16:41:24.047Z,95.07
2022-12-26T16:43:51.632Z,94.92
2022-12-26T16:46:19.114Z,94.97
2022-12-26T16:48:48.710Z,95.23
2022-12-26T16:51:33.710Z,95.21
2022-12-26T16:54:20.669Z,94.75
2022-12-26T16:57:01.071Z,95.37
2022-12-26T16:59:36.400Z,95.55
2022-12-26T17:02:03.111Z,95.94
2022-12-26T17:04:30.392Z,96.46
2022-12-26T17:07:08.185Z,96.67
2022-12-26T17:09:40.334Z,96.57
2022-12-26T17:12:08.674Z,96.52
2022-12-26T17:14:37.379Z,95.12
2022-12-26T17:17:06.585Z,93.64
2022-12-26T17:19:35.826Z,90.59
2022-12-26T17:22:14.517Z,87.61
2022-12-26T17:24:42.337Z,86.12
2022-12-26T17:27:24.735Z,83.80
2022-12-26T17:29:57.548Z,84.10
2022-12-26T17:32:33.185Z,80.67
2022-12-26T17:35:06.010Z,81.30
2022-12-26T17:37:32.997Z,79.37
2022-12-26T17:40:07.070Z,79.22
2022-12-26T17:42:47.668Z,79.19
2022-12-26T17:45:19.755Z,78.86
2022-12-26T17:47:46.297Z,79.49
2022-12-26T17:50:13.101Z,79.72
2022-12-26T17:52:39.584Z,79.13
2022-12-26T17:55:13.941Z,78.92
2022-12-26T17:57:40.329Z,79.26
2022-12-26T18:00:14.901Z,80.11
2022-12-26T18:02:41.396Z,80.38
2022-12-26T18:05:08.162Z,80.74
2022-12-26T18:07:34.587Z,81.01
2022-12-26T18:10:02.771Z,80.81
2022-12-26T18:12:29.309Z,80.81
2022-12-26T18:15:01.388Z,79.35
2022-12-26T18:17:31.988Z,79.36
2022-12-26T18:19:58.901Z,78.17
2022-12-26T18:22:25.357Z,77.72
2022-12-26T18:24:51.801Z,77.08
2022-12-26T18:27:28.105Z,77.23
2022-12-26T18:29:54.518Z,77.11
2022-12-26T18:32:28.268Z,76.65
2022-12-26T18:34:54.999Z,77.07
2022-12-26T18:37:23.136Z,76.69
2022-12-26T18:39:49.568Z,76.66
2022-12-26T18:42:17.008Z,77.05
2022-12-26T18:44:43.871Z,77.23
2022-12-26T18:47:16.385Z,77.04
2022-12-26T18:49:43.401Z,76.91
2022-12-26T18:52:10.633Z,76.51
2022-12-26T18:54:38.897Z,75.77
2022-12-26T18:57:07.055Z,75.76
2022-12-26T18:59:33.876Z,75.89
2022-12-26T19:02:00.542Z,75.80
2022-12-26T19:04:27.025Z,75.05
2022-12-26T19:06:53.708Z,74.92
2022-12-26T19:09:20.226Z,75.37
2022-12-26T19:11:46.658Z,74.94
2022-12-26T19:14:21.972Z,74.79
2022-12-26T19:16:48.457Z,75.53
2022-12-26T19:19:15.000Z,74.64
2022-12-26T19:21:42.540Z,74.25
2022-12-26T19:24:11.418Z,74.34
2022-12-26T19:26:37.819Z,74.46
2022-12-26T19:29:04.248Z,74.40
2022-12-26T19:31:30.700Z,73.96
2022-12-26T19:33:58.724Z,73.97
2022-12-26T19:36:25.195Z,74.36
2022-12-26T19:38:55.116Z,74.51
2022-12-26T19:41:22.071Z,74.74
2022-12-26T19:43:48.662Z,74.52
2022-12-26T19:46:15.794Z,75.02
2022-12-26T19:48:42.809Z,75.20
2022-12-26T19:51:11.600Z,75.46
2022-12-26T19:53:38.657Z,75.46
2022-12-26T19:56:15.605Z,75.36
2022-12-26T19:58:42.320Z,75.24
2022-12-26T20:01:28.896Z,75.93
2022-12-26T20:03:57.049Z,76.00
2022-12-26T20:06:25.173Z,76.51
2022-12-26T20:08:51.989Z,76.07
2022-12-26T20:11:21.375Z,76.53
2022-12-26T20:13:48.319Z,76.22
2022-12-26T20:16:45.920Z,75.76
2022-12-26T20:19:04.254Z,76.02
2022-12-26T20:21:30.724Z,75.78
2022-12-26T20:23:58.339Z,75.71
2022-12-26T20:26:25.845Z,75.87
2022-12-26T20:28:56.375Z,75.68
2022-12-26T20:31:23.245Z,75.84
2022-12-26T20:33:50.836Z,75.89
2022-12-26T20:36:19.705Z,76.07
2022-12-26T20:38:46.403Z,76.39
2022-12-26T20:41:13.354Z,76.55
2022-12-26T20:43:40.108Z,76.38
2022-12-26T20:46:12.738Z,76.07
2022-12-26T20:48:39.173Z,75.55
2022-12-26T20:51:07.937Z,75.56
2022-12-26T20:53:35.050Z,75.40
2022-12-26T20:56:01.851Z,74.94
2022-12-26T20:58:29.815Z,75.23
2022-12-26T21:00:58.242Z,75.26
2022-12-26T21:03:25.642Z,74.98
2022-12-26T21:05:52.496Z,74.97
2022-12-26T21:08:19.533Z,74.11
2022-12-26T21:10:46.158Z,74.63
2022-12-26T21:13:12.988Z,74.01
2022-12-26T21:15:39.958Z,74.77
2022-12-26T21:18:06.374Z,75.14
2022-12-26T21:20:32.859Z,76.06
2022-12-26T21:22:59.323Z,76.75
2022-12-26T21:25:25.773Z,76.64
2022-12-26T21:27:56.088Z,76.79
2022-12-26T21:30:25.359Z,76.62
2022-12-26T21:32:51.950Z,76.40
2022-12-26T21:35:18.425Z,76.74
2022-12-26T21:37:54.016Z,76.67
2022-12-26T21:40:23.533Z,76.72
2022-12-26T21:42:49.922Z,77.26
2022-12-26T21:45:16.421Z,77.29
2022-12-26T21:47:42.850Z,77.11
2022-12-26T21:50:09.382Z,77.36
2022-12-26T21:52:35.773Z,77.54
2022-12-26T21:55:20.889Z,77.30
2022-12-26T21:57:47.328Z,77.87
2022-12-26T22:00:14.187Z,78.47
2022-12-26T22:02:59.220Z,79.06
2022-12-26T22:05:29.366Z,79.12
2022-12-26T22:07:57.983Z,78.45
2022-12-26T22:10:44.368Z,77.66
2022-12-26T22:13:10.826Z,77.66
2022-12-26T22:16:03.788Z,77.64
2022-12-26T22:18:31.898Z,78.00
2022-12-26T22:21:15.710Z,78.11
2022-12-26T22:23:42.994Z,78.19
2022-12-26T22:26:11.496Z,78.09
2022-12-26T22:28:38.402Z,78.23
2022-12-26T22:31:05.421Z,78.18
2022-12-26T22:33:32.026Z,78.85
2022-12-26T22:36:06.470Z,78.76
2022-12-26T22:38:33.564Z,79.23
2022-12-26T22:41:00.396Z,79.70
2022-12-26T22:43:27.471Z,79.61
2022-12-26T22:45:54.409Z,79.63
2022-12-26T22:48:21.265Z,79.90
2022-12-26T22:50:51.484Z,80.26
2022-12-26T22:53:18.018Z,80.20
2022-12-26T22:55:49.180Z,79.98
2022-12-26T22:58:16.925Z,80.05
2022-12-26T23:00:44.604Z,80.08
2022-12-26T23:03:11.818Z,80.00
2022-12-26T23:05:39.180Z,79.68
2022-12-26T23:08:07.293Z,80.18
2022-12-26T23:10:34.782Z,80.18
2022-12-26T23:13:01.818Z,80.31
2022-12-26T23:15:28.800Z,80.32
2022-12-26T23:18:26.688Z,79.74
2022-12-26T23:21:12.472Z,80.48
2022-12-26T23:23:39.411Z,80.50
2022-12-26T23:26:05.936Z,80.51
2022-12-26T23:28:51.017Z,80.83
2022-12-26T23:31:17.491Z,81.20
2022-12-26T23:33:44.000Z,80.90
2022-12-26T23:36:10.501Z,80.92
2022-12-26T23:38:37.019Z,81.37
2022-12-26T23:41:03.583Z,81.60
2022-12-26T23:43:30.145Z,81.16
2022-12-26T23:45:56.654Z,81.32
2022-12-26T23:48:23.111Z,81.65
2022-12-26T23:50:49.658Z,81.58
2022-12-26T23:53:16.214Z,81.22
2022-12-26T23:55:42.792Z,81.26
2022-12-26T23:58:09.321Z,82.06
